Hollywood, South Carolina
Current Conditions -  °F | °C
As of 5:35 PM on Monday 26 Jan 2015 (Local Time) from KJZI Reporting Station
Few Clouds Few Clouds  
Wind Chill: 54°   Ceiling: Unl
Heat Index: 54°   Visibility: 10mi
Dew Point: 39°   Wind: 10mph
Humidity: 58%   Direction: 260°W
Pressure: 29.68"   Gusts: 18mph
Location:  32.73°N, 80.24°W
Report Text: KJZI 262235Z AUTO 26009G16KT 10SM FEW070 12/04 A2968 RMK A02 P000
Loading
Personal Weather Stations






























Interactive Weather Map New forecast layout! Learn more

10-Day Weather Forecast

Advertisements
Track Severe Weather on mobile